Pagrindinis puslapis
METAR-TAF:

METAR-TAF

Oro uostai :

Resifė, Pernambuco, Brazilija

platuma: 08-08S, ilguma: 034-55W, Aukštis: 19 m

Dabartinis oras

Ataskaita buvo paskelbta 28 minutes, ne 01:00 UTC
Vėjas 4 kt iš Rytų/Pietryčių
Temperatūra 26°C
Drėgmė 84%
Slėgis 1014 hPa
Matomumas 10 km arba daugiau
Su prošvaistėmis ne aukštis 1600 ft

METAR: SBRF 140100Z 11004KT 9999 BKN016 26/23 Q1014

Laikas: 22:28 (01:28 UTC)

Prognozė

Ataskaita buvo paskelbta 4 valandos ir 57 minutes, ne 20:31 UTC
Prognozė galioja nuo 14 metu 00 UTC su 14 metu 24 UTC
Vėjas 10 kt iš Pietryčių
Matomumas: 8000 m
Išsisklaidę debesys ne aukštis 1500 ft
Laikinai
nuo 14 metu 00 UTC su 14 metu 05 UTC
Matomumas: 4000 m
Su prošvaistėmis ne aukštis 800 ft
lietus
Tapsmas
nuo 14 metu 05 UTC su 14 metu 07 UTC
Vėjas 5 kt iš Pietų/Pietvakarių
Tapsmas
nuo 14 metu 10 UTC su 14 metu 12 UTC
Vėjas 10 kt iš Pietryčių

TAF: SBRF 132031Z 1400/1424 14010KT 8000 SCT015 TN23/1409Z TX29/1416Z TEMPO 1400/1405 4000 RA BKN008 BECMG 1405/1407 21005KT BECMG 1410/1412 14010KT RMK PHI

Orai ataskaitas ir orų prognozės (METAR, TAF).

turimą stotys yra geltonos ir raudonos taškus žemėlapyje.

Perkelti pele per norėdami pamatyti stoties vardą.

Tada spustelėkite, norėdami matyti oro stebėjimo ir prognozės.

Norėdami pakeisti žemėlapį: spustelėkite ant žalios mygtukų su juodo kryžiaus žemyn,; žalią mygtuką su brūkšneliu, jei norite nutolinti; arba žalių rodyklių gretimoms žemėlapius.


METAR-TAF: